Talmage, Nebraska
Current Conditions -  °F | °C
As of 8:15 AM on Sunday 25 Jan 2015 (Local Time) from KAFK Reporting Station
Light Rain Light Rain  
Wind Chill: 23°   Ceiling: 1300
Heat Index: 35°   Visibility: 7mi
Dew Point: 31°   Wind: 23mph
Humidity: 86%   Direction: 350°N
Pressure: 29.8"   Gusts: 28mph
Location:  40.53°N, 96.02°W
Report Text: KAFK 251415Z AUTO 35020G24KT 7SM -RA OVC013 02/00 A2980 RMK AO2 T00161005
Loading
Personal Weather Stations






























Interactive Weather Map New forecast layout! Learn more

10-Day Weather Forecast

Advertisements
Track Severe Weather on mobile